Terminal Aerodrome Forecast
Issued by NWS Omaha/Valley, NE

Home | Current Version | Previous Version | Graphics & Text | Print | Product List | Glossary On
Versions: 1 2 3 4 5 6 7 8 9 10 11 12 13 14 15 16 17 18 19 20 21 22 23 24 25 26 27 28 29 30 31 32 33 34
479
FTUS43 KOAX 211720
TAFOFK
TAF
KOFK 211720Z 2118/2218 02013KT P6SM OVC025
     FM211900 02015G23KT P6SM VCSH OVC012
     FM212300 02017G25KT 6SM BR OVC010
      TEMPO 2123/2203 3SM -SN BR OVC003
     FM220300 01020G28KT 2SM -SN OVC008
     FM220500 01022G30KT 1SM -SN BLSN OVC008
     FM220700 01023G31KT 1/2SM SN BLSN OVC008=

USA.gov is the U.S. government's official web portal to all federal, state and local government web resources and services.